Huzhou, China
Current Conditions -  °F | °C
As of 12:00 AM on Tuesday 27 Jan 2015 (Local Time) from ZSHC Reporting Station
Haze Haze  
Wind Chill: 41°   Ceiling: 2000
Heat Index: 46°   Visibility: 1.8mi
Dew Point: 41°   Wind: 11mph
Humidity: 81%   Direction: 70°ENE
Pressure: 30.27"   Gusts: NA
Location:  30.87°N, 120.1°E
Report Text: ZSHC 261600Z 07005MPS 3000 BR BKN020 08/05 Q1025 NOSIG
Loading
Personal Weather Stations






























Interactive Weather Map New forecast layout! Learn more

10-Day Weather Forecast

Advertisements
Track Severe Weather on mobile